Time;durP1;ratioP1;P1;durP2;ratioP2;P2;SDS_P1;SDS_P2;PMS_P1;PMS_P2;Temp;Humidity;BMP_temperature;BMP_pressure;BME280_temperature;BME280_humidity;BME280_pressure;Samples;Min_cycle;Max_cycle;Signal;HPM_P1;HPM_P2
2021/06/25 00:00:52;;;;;;;0.00;0.00;;;;;;;;;;5075844;28;20434;-66
2021/06/25 00:03:19;;;;;;;0.00;0.00;;;;;;;;;;5084301;28;20545;-66
2021/06/25 00:05:46;;;;;;;0.10;0.10;;;;;;;;;;5084754;28;20207;-66
2021/06/25 00:08:13;;;;;;;0.00;0.00;;;;;;;;;;5071214;28;20201;-66
2021/06/25 00:10:39;;;;;;;0.10;0.10;;;;;;;;;;5084351;28;20233;-67
2021/06/25 00:13:06;;;;;;;0.10;0.10;;;;;;;;;;5084282;28;20200;-66
2021/06/25 00:15:32;;;;;;;0.08;0.08;;;;;;;;;;5084418;28;20245;-67
2021/06/25 00:17:59;;;;;;;0.10;0.10;;;;;;;;;;5084312;28;20209;-66
2021/06/25 00:20:25;;;;;;;0.08;0.08;;;;;;;;;;5084270;28;20204;-66
2021/06/25 00:22:53;;;;;;;0.10;0.10;;;;;;;;;;5083192;28;20208;-66
2021/06/25 00:25:19;;;;;;;0.00;0.00;;;;;;;;;;5071151;28;20226;-66
2021/06/25 00:27:46;;;;;;;0.10;0.10;;;;;;;;;;5084164;28;20221;-66
2021/06/25 00:30:15;;;;;;;0.05;0.05;;;;;;;;;;5083887;28;20205;-66
2021/06/25 00:32:41;;;;;;;0.10;0.10;;;;;;;;;;5076934;28;20252;-66
2021/06/25 00:35:08;;;;;;;0.10;0.10;;;;;;;;;;5077760;28;20297;-66
2021/06/25 00:37:34;;;;;;;0.10;0.10;;;;;;;;;;5083585;28;20253;-66
2021/06/25 00:40:02;;;;;;;0.10;0.10;;;;;;;;;;5072171;28;20204;-66
2021/06/25 00:42:28;;;;;;;0.10;0.10;;;;;;;;;;5077751;28;20262;-66
2021/06/25 00:44:55;;;;;;;0.10;0.10;;;;;;;;;;5073288;28;20218;-66
2021/06/25 00:47:21;;;;;;;0.10;0.10;;;;;;;;;;5069565;28;20219;-66
2021/06/25 00:49:47;;;;;;;0.10;0.10;;;;;;;;;;5083485;28;20207;-66
2021/06/25 00:52:15;;;;;;;0.10;0.10;;;;;;;;;;5082972;28;20204;-66
2021/06/25 00:54:41;;;;;;;0.05;0.05;;;;;;;;;;5083233;28;20554;-67
2021/06/25 00:57:09;;;;;;;0.10;0.10;;;;;;;;;;5083607;28;20206;-66
2021/06/25 00:59:35;;;;;;;0.10;0.10;;;;;;;;;;5083487;28;20269;-66
2021/06/25 01:02:01;;;;;;;0.10;0.10;;;;;;;;;;5083500;28;20205;-66
2021/06/25 01:04:28;;;;;;;0.10;0.10;;;;;;;;;;5083549;28;20439;-66
2021/06/25 01:06:54;;;;;;;0.10;0.10;;;;;;;;;;5083403;28;20206;-66
2021/06/25 01:09:20;;;;;;;0.10;0.10;;;;;;;;;;5083111;28;20216;-67
2021/06/25 01:11:47;;;;;;;0.00;0.00;;;;;;;;;;5083035;28;20364;-66
2021/06/25 01:14:14;;;;;;;0.10;0.10;;;;;;;;;;5083201;28;20203;-66
2021/06/25 01:16:41;;;;;;;0.03;0.03;;;;;;;;;;5082548;28;20319;-66
2021/06/25 01:19:12;;;;;;;0.00;0.00;;;;;;;;;;5083057;28;20226;-66
2021/06/25 01:21:40;;;;;;;0.00;0.00;;;;;;;;;;5082690;28;20246;-66
2021/06/25 01:24:07;;;;;;;0.08;0.08;;;;;;;;;;5082698;28;20207;-66
2021/06/25 01:26:33;;;;;;;0.10;0.10;;;;;;;;;;5082859;28;20226;-66
2021/06/25 01:28:59;;;;;;;0.10;0.10;;;;;;;;;;5082815;28;20210;-66
2021/06/25 01:31:25;;;;;;;0.03;0.03;;;;;;;;;;5082599;28;20205;-67
2021/06/25 01:33:52;;;;;;;0.10;0.10;;;;;;;;;;5079340;28;20207;-66
2021/06/25 01:36:18;;;;;;;0.00;0.00;;;;;;;;;;5071873;28;20239;-66
2021/06/25 01:38:47;;;;;;;0.08;0.08;;;;;;;;;;5082744;28;20204;-67
2021/06/25 01:41:14;;;;;;;0.08;0.08;;;;;;;;;;5082420;28;20510;-67
2021/06/25 01:43:40;;;;;;;0.10;0.10;;;;;;;;;;5082417;28;20210;-67
2021/06/25 01:46:07;;;;;;;0.10;0.10;;;;;;;;;;5075133;28;20198;-66
2021/06/25 01:48:33;;;;;;;0.10;0.10;;;;;;;;;;5082290;28;20325;-66
2021/06/25 01:50:59;;;;;;;0.00;0.00;;;;;;;;;;5082829;28;20208;-66
2021/06/25 01:53:26;;;;;;;0.00;0.00;;;;;;;;;;5082101;28;20207;-66
2021/06/25 01:55:54;;;;;;;0.00;0.00;;;;;;;;;;5081254;28;20225;-66
2021/06/25 01:58:21;;;;;;;0.10;0.10;;;;;;;;;;5082579;28;20217;-66
2021/06/25 02:00:49;;;;;;;0.10;0.10;;;;;;;;;;5082174;28;20249;-66
2021/06/25 02:03:16;;;;;;;0.05;0.05;;;;;;;;;;5082138;28;20203;-66
2021/06/25 02:05:42;;;;;;;0.10;0.10;;;;;;;;;;5082633;28;20241;-66
2021/06/25 02:08:08;;;;;;;0.05;0.05;;;;;;;;;;5082135;28;20479;-66
2021/06/25 02:10:34;;;;;;;0.08;0.08;;;;;;;;;;5082506;28;20232;-66
2021/06/25 02:13:02;;;;;;;0.08;0.08;;;;;;;;;;5082106;28;20219;-66
2021/06/25 02:15:28;;;;;;;0.10;0.10;;;;;;;;;;5082554;28;20231;-66
2021/06/25 02:17:54;;;;;;;0.03;0.03;;;;;;;;;;5082276;28;20495;-66
2021/06/25 02:20:21;;;;;;;0.10;0.10;;;;;;;;;;5073614;28;20201;-66
2021/06/25 02:22:47;;;;;;;0.10;0.10;;;;;;;;;;5077260;28;20226;-66
2021/06/25 02:25:14;;;;;;;0.08;0.08;;;;;;;;;;5082391;28;20223;-67
2021/06/25 02:27:40;;;;;;;0.03;0.03;;;;;;;;;;5082606;28;20204;-67
2021/06/25 02:30:09;;;;;;;0.10;0.10;;;;;;;;;;5082301;28;20199;-66
2021/06/25 02:32:35;;;;;;;0.10;0.10;;;;;;;;;;5082243;28;20233;-67
2021/06/25 02:35:01;;;;;;;0.10;0.10;;;;;;;;;;5082252;28;20199;-66
2021/06/25 02:37:28;;;;;;;0.10;0.10;;;;;;;;;;5082483;28;20206;-66
2021/06/25 02:39:54;;;;;;;0.08;0.08;;;;;;;;;;5082193;28;20549;-66
2021/06/25 02:42:20;;;;;;;0.07;0.07;;;;;;;;;;5082540;28;20199;-66
2021/06/25 02:44:46;;;;;;;0.00;0.00;;;;;;;;;;5082107;28;20206;-67
2021/06/25 02:47:14;;;;;;;0.10;0.10;;;;;;;;;;5082330;28;20198;-66
2021/06/25 02:49:40;;;;;;;0.10;0.10;;;;;;;;;;5082319;28;20302;-67
2021/06/25 02:52:07;;;;;;;0.10;0.10;;;;;;;;;;5077523;28;20200;-67
2021/06/25 02:54:33;;;;;;;0.10;0.10;;;;;;;;;;5071180;28;20241;-66
2021/06/25 02:56:59;;;;;;;0.08;0.08;;;;;;;;;;5082153;28;20352;-66
2021/06/25 02:59:25;;;;;;;0.00;0.00;;;;;;;;;;5081735;28;20204;-66
2021/06/25 03:01:52;;;;;;;0.00;0.00;;;;;;;;;;5082145;28;20260;-66
2021/06/25 03:04:19;;;;;;;0.00;0.00;;;;;;;;;;5082100;28;20203;-66
2021/06/25 03:06:46;;;;;;;0.10;0.10;;;;;;;;;;5081797;28;20204;-66
2021/06/25 03:09:12;;;;;;;0.10;0.10;;;;;;;;;;5085155;28;20253;-67
2021/06/25 03:11:39;;;;;;;0.03;0.03;;;;;;;;;;5085643;28;20203;-66
2021/06/25 03:14:05;;;;;;;0.05;0.05;;;;;;;;;;5085366;28;20251;-66
2021/06/25 03:16:31;;;;;;;0.07;0.07;;;;;;;;;;5085516;28;20223;-66
2021/06/25 03:18:57;;;;;;;0.10;0.10;;;;;;;;;;5085491;28;20519;-66
2021/06/25 03:21:25;;;;;;;0.08;0.08;;;;;;;;;;5085218;28;20518;-67
2021/06/25 03:23:51;;;;;;;0.10;0.10;;;;;;;;;;5085546;28;20208;-65
2021/06/25 03:26:17;;;;;;;0.10;0.10;;;;;;;;;;5080226;28;20220;-66
2021/06/25 03:28:44;;;;;;;0.10;0.10;;;;;;;;;;5076235;28;20413;-66
2021/06/25 03:31:10;;;;;;;0.10;0.10;;;;;;;;;;5085453;28;20200;-66
2021/06/25 03:33:36;;;;;;;0.10;0.10;;;;;;;;;;5084951;28;20198;-66
2021/06/25 03:36:03;;;;;;;0.03;0.03;;;;;;;;;;5083782;28;20286;-66
2021/06/25 03:38:32;;;;;;;0.00;0.00;;;;;;;;;;5072393;28;20204;-67
2021/06/25 03:40:58;;;;;;;0.00;0.00;;;;;;;;;;5085221;28;20514;-66
2021/06/25 03:43:24;;;;;;;0.00;0.00;;;;;;;;;;5085302;28;20216;-66
2021/06/25 03:45:51;;;;;;;0.03;0.03;;;;;;;;;;5084852;28;20265;-66
2021/06/25 03:48:17;;;;;;;0.00;0.00;;;;;;;;;;5070771;28;20207;-65
2021/06/25 03:50:44;;;;;;;0.00;0.00;;;;;;;;;;5084858;28;20243;-67
2021/06/25 03:53:10;;;;;;;0.00;0.00;;;;;;;;;;5084572;28;20229;-67
2021/06/25 03:56:09;;;;;;;0.08;0.08;;;;;;;;;;5070820;28;20533;-66
2021/06/25 03:58:24;;;;;;;0.10;0.10;;;;;;;;;;5084562;28;20234;-67
2021/06/25 04:00:51;;;;;;;0.10;0.10;;;;;;;;;;5069993;28;20262;-67
2021/06/25 04:03:17;;;;;;;0.03;0.03;;;;;;;;;;5084672;28;20525;-65
2021/06/25 04:05:43;;;;;;;0.10;0.10;;;;;;;;;;5084770;28;20257;-67
2021/06/25 04:08:09;;;;;;;0.10;0.10;;;;;;;;;;5085028;28;20204;-66
2021/06/25 04:10:37;;;;;;;0.10;0.10;;;;;;;;;;5084622;28;20274;-68
2021/06/25 04:13:03;;;;;;;0.03;0.03;;;;;;;;;;5076806;28;20258;-67
2021/06/25 04:15:30;;;;;;;0.00;0.00;;;;;;;;;;5078461;28;20373;-65
2021/06/25 04:17:56;;;;;;;0.05;0.05;;;;;;;;;;5084583;28;20383;-66
2021/06/25 04:20:23;;;;;;;0.10;0.10;;;;;;;;;;5083368;28;20204;-65
2021/06/25 04:22:49;;;;;;;0.10;0.10;;;;;;;;;;5083897;28;20207;-65
2021/06/25 04:25:15;;;;;;;0.03;0.03;;;;;;;;;;5084420;28;20236;-66
2021/06/25 04:27:43;;;;;;;0.03;0.03;;;;;;;;;;5083815;28;20542;-66
2021/06/25 04:30:12;;;;;;;0.00;0.00;;;;;;;;;;5084061;28;20229;-66
2021/06/25 04:32:38;;;;;;;0.00;0.00;;;;;;;;;;5083181;28;20203;-66
2021/06/25 04:35:05;;;;;;;0.00;0.00;;;;;;;;;;5070916;28;20200;-66
2021/06/25 04:37:31;;;;;;;0.00;0.00;;;;;;;;;;5070736;28;20261;-66
2021/06/25 04:39:58;;;;;;;0.10;0.10;;;;;;;;;;5083328;28;20451;-66
2021/06/25 04:42:24;;;;;;;0.10;0.10;;;;;;;;;;5084067;28;20204;-66
2021/06/25 04:44:52;;;;;;;0.10;0.10;;;;;;;;;;5083980;28;20200;-66
2021/06/25 04:47:18;;;;;;;0.03;0.03;;;;;;;;;;5083888;28;20515;-66
2021/06/25 04:49:45;;;;;;;0.10;0.10;;;;;;;;;;5083831;28;20385;-65
2021/06/25 04:52:11;;;;;;;0.10;0.10;;;;;;;;;;5083787;28;20206;-66
2021/06/25 04:54:37;;;;;;;0.00;0.00;;;;;;;;;;5073715;28;20494;-66
2021/06/25 04:57:04;;;;;;;0.10;0.10;;;;;;;;;;5077529;28;20220;-66
2021/06/25 04:59:30;;;;;;;0.03;0.03;;;;;;;;;;5071656;28;20264;-66
2021/06/25 05:01:57;;;;;;;0.03;0.03;;;;;;;;;;5083320;28;20211;-66
2021/06/25 05:04:24;;;;;;;0.10;0.10;;;;;;;;;;5083043;28;20265;-66
2021/06/25 05:06:50;;;;;;;0.05;0.05;;;;;;;;;;5083205;28;20203;-66
2021/06/25 05:09:16;;;;;;;0.08;0.08;;;;;;;;;;5064670;28;20209;-66
2021/06/25 05:11:43;;;;;;;0.10;0.10;;;;;;;;;;5073759;28;20250;-66
2021/06/25 05:14:09;;;;;;;0.00;0.00;;;;;;;;;;5083203;28;20234;-65
2021/06/25 05:16:35;;;;;;;0.00;0.00;;;;;;;;;;5082900;28;20227;-66
2021/06/25 05:19:03;;;;;;;0.00;0.00;;;;;;;;;;5082165;28;20527;-65
2021/06/25 05:21:29;;;;;;;0.10;0.10;;;;;;;;;;5070122;28;20222;-65
2021/06/25 05:23:56;;;;;;;0.10;0.10;;;;;;;;;;5082298;28;20218;-65
2021/06/25 05:26:22;;;;;;;0.00;0.00;;;;;;;;;;5076038;28;20434;-67
2021/06/25 05:28:48;;;;;;;0.00;0.00;;;;;;;;;;5080552;28;20407;-66
2021/06/25 05:31:15;;;;;;;0.10;0.10;;;;;;;;;;5075240;28;20206;-66
2021/06/25 05:33:41;;;;;;;0.00;0.00;;;;;;;;;;5071685;28;20543;-66
2021/06/25 05:36:09;;;;;;;0.10;0.10;;;;;;;;;;5081251;28;20215;-66
2021/06/25 05:38:35;;;;;;;0.00;0.00;;;;;;;;;;5074967;28;20210;-66
2021/06/25 05:41:02;;;;;;;0.10;0.10;;;;;;;;;;5076861;28;20215;-66
2021/06/25 05:43:28;;;;;;;0.08;0.08;;;;;;;;;;5068548;28;20227;-66
2021/06/25 05:45:54;;;;;;;0.08;0.08;;;;;;;;;;5069114;28;20275;-66
2021/06/25 05:48:20;;;;;;;0.00;0.00;;;;;;;;;;5081172;28;20209;-65
2021/06/25 05:50:47;;;;;;;0.08;0.08;;;;;;;;;;5072172;28;20208;-66
2021/06/25 05:53:15;;;;;;;0.10;0.10;;;;;;;;;;5073141;28;20200;-66
2021/06/25 05:55:42;;;;;;;0.08;0.08;;;;;;;;;;5076192;28;20204;-65
2021/06/25 05:58:08;;;;;;;0.08;0.08;;;;;;;;;;5074430;28;20234;-66
2021/06/25 06:00:35;;;;;;;0.10;0.10;;;;;;;;;;5075964;28;20248;-66
2021/06/25 06:03:01;;;;;;;0.10;0.10;;;;;;;;;;5067271;28;20470;-64
2021/06/25 06:05:28;;;;;;;0.00;0.00;;;;;;;;;;5070864;28;20421;-69
2021/06/25 06:07:54;;;;;;;0.10;0.10;;;;;;;;;;5072688;28;20199;-69
2021/06/25 06:10:22;;;;;;;0.00;0.00;;;;;;;;;;5072824;28;20227;-68
2021/06/25 06:12:48;;;;;;;0.10;0.10;;;;;;;;;;5075674;28;20204;-68
2021/06/25 06:15:15;;;;;;;0.00;0.00;;;;;;;;;;5078768;28;20211;-68
2021/06/25 06:17:44;;;;;;;0.10;0.10;;;;;;;;;;5079373;28;20219;-69
2021/06/25 06:20:15;;;;;;;0.10;0.10;;;;;;;;;;5064110;28;20453;-68
2021/06/25 06:31:13;;;;;;;0.10;0.10;;;;;;;;;;5081891;28;20267;-69
2021/06/25 06:33:43;;;;;;;0.00;0.00;;;;;;;;;;5076782;28;20238;-70
2021/06/25 06:36:10;;;;;;;0.00;0.00;;;;;;;;;;5074750;28;20257;-69
2021/06/25 06:38:37;;;;;;;0.00;0.00;;;;;;;;;;5078487;28;20214;-68
2021/06/25 06:41:04;;;;;;;0.00;0.00;;;;;;;;;;5075965;28;20207;-68
2021/06/25 06:43:31;;;;;;;0.10;0.10;;;;;;;;;;5071179;28;20215;-68
2021/06/25 06:45:58;;;;;;;0.03;0.03;;;;;;;;;;5072740;28;20220;-69
2021/06/25 06:48:24;;;;;;;0.00;0.00;;;;;;;;;;5065473;28;20203;-71
2021/06/25 06:50:50;;;;;;;0.00;0.00;;;;;;;;;;5079925;28;20292;-70
2021/06/25 06:53:17;;;;;;;0.00;0.00;;;;;;;;;;5082698;28;20444;-68
2021/06/25 06:55:44;;;;;;;0.00;0.00;;;;;;;;;;5085820;28;20242;-69
2021/06/25 06:58:12;;;;;;;0.10;0.10;;;;;;;;;;5085334;28;20282;-69
2021/06/25 07:00:38;;;;;;;0.10;0.10;;;;;;;;;;5082341;28;20487;-69
2021/06/25 07:03:05;;;;;;;0.00;0.00;;;;;;;;;;5080159;28;20203;-69
2021/06/25 07:05:32;;;;;;;0.10;0.10;;;;;;;;;;5081645;28;20200;-69
2021/06/25 07:07:58;;;;;;;0.10;0.10;;;;;;;;;;5085654;28;20200;-68
2021/06/25 07:10:25;;;;;;;0.00;0.00;;;;;;;;;;5085425;28;20207;-68
2021/06/25 07:12:51;;;;;;;0.00;0.00;;;;;;;;;;5077096;28;20202;-67
2021/06/25 07:15:19;;;;;;;0.00;0.00;;;;;;;;;;5076444;28;20391;-68
2021/06/25 07:17:45;;;;;;;0.10;0.10;;;;;;;;;;5081082;28;20226;-67
2021/06/25 07:20:12;;;;;;;0.00;0.00;;;;;;;;;;5070707;28;20280;-68
2021/06/25 07:22:38;;;;;;;0.08;0.08;;;;;;;;;;5082034;28;20215;-68
2021/06/25 07:25:05;;;;;;;0.10;0.10;;;;;;;;;;5071046;28;20574;-68
2021/06/25 07:27:32;;;;;;;0.10;0.10;;;;;;;;;;5085349;28;20258;-68
2021/06/25 07:29:59;;;;;;;0.08;0.08;;;;;;;;;;5072577;28;20222;-68
2021/06/25 07:32:27;;;;;;;0.00;0.00;;;;;;;;;;5082884;28;20533;-70
2021/06/25 07:34:54;;;;;;;0.00;0.00;;;;;;;;;;5080181;28;20251;-69
2021/06/25 07:37:21;;;;;;;0.00;0.00;;;;;;;;;;5075960;28;20225;-69
2021/06/25 07:39:47;;;;;;;0.00;0.00;;;;;;;;;;5084847;28;20389;-68
2021/06/25 07:42:14;;;;;;;0.03;0.03;;;;;;;;;;5073977;28;20203;-69
2021/06/25 07:44:40;;;;;;;0.10;0.10;;;;;;;;;;5078555;28;20220;-68
2021/06/25 07:47:07;;;;;;;0.05;0.05;;;;;;;;;;5075827;28;20199;-68
2021/06/25 07:49:35;;;;;;;0.00;0.00;;;;;;;;;;5081902;28;20203;-69
2021/06/25 07:52:02;;;;;;;0.00;0.00;;;;;;;;;;5083565;28;20207;-68
2021/06/25 07:54:29;;;;;;;0.08;0.08;;;;;;;;;;5075382;28;20245;-66
2021/06/25 07:56:55;;;;;;;0.00;0.00;;;;;;;;;;5084072;28;20239;-67
2021/06/25 07:59:22;;;;;;;0.10;0.10;;;;;;;;;;5084552;28;20479;-68
2021/06/25 08:01:48;;;;;;;0.05;0.05;;;;;;;;;;5084221;28;20263;-68
2021/06/25 08:04:15;;;;;;;0.10;0.10;;;;;;;;;;5084150;28;20245;-68
2021/06/25 08:06:43;;;;;;;0.05;0.05;;;;;;;;;;5075330;28;20210;-68
2021/06/25 08:09:10;;;;;;;0.00;0.00;;;;;;;;;;5082545;28;20201;-68
2021/06/25 08:11:37;;;;;;;0.10;0.10;;;;;;;;;;5076517;28;20218;-69
2021/06/25 08:14:03;;;;;;;0.03;0.03;;;;;;;;;;5082774;28;20213;-69
2021/06/25 08:16:30;;;;;;;0.00;0.00;;;;;;;;;;5084120;28;20250;-69
2021/06/25 08:19:00;;;;;;;0.00;0.00;;;;;;;;;;5083454;28;20352;-69
2021/06/25 08:21:27;;;;;;;0.00;0.00;;;;;;;;;;5078028;28;20496;-69
2021/06/25 08:23:55;;;;;;;0.00;0.00;;;;;;;;;;5083374;28;20343;-71
2021/06/25 08:26:22;;;;;;;0.00;0.00;;;;;;;;;;5074718;28;20234;-70
2021/06/25 08:28:49;;;;;;;0.00;0.00;;;;;;;;;;5079186;28;20378;-69
2021/06/25 08:31:16;;;;;;;0.00;0.00;;;;;;;;;;5078169;28;20206;-69
2021/06/25 08:33:43;;;;;;;0.00;0.00;;;;;;;;;;5065819;28;20265;-70
2021/06/25 08:36:10;;;;;;;0.10;0.10;;;;;;;;;;5079581;28;20211;-68
2021/06/25 08:38:36;;;;;;;0.00;0.00;;;;;;;;;;5081756;28;20231;-70
2021/06/25 08:41:05;;;;;;;0.10;0.10;;;;;;;;;;5083134;28;20278;-69
2021/06/25 08:43:31;;;;;;;0.00;0.00;;;;;;;;;;5083486;28;20250;-69
2021/06/25 08:46:00;;;;;;;0.00;0.00;;;;;;;;;;5082981;28;20388;-69
2021/06/25 08:48:27;;;;;;;0.00;0.00;;;;;;;;;;5082504;28;20460;-68
2021/06/25 08:50:55;;;;;;;0.00;0.00;;;;;;;;;;5078129;28;20298;-69
2021/06/25 08:53:22;;;;;;;0.00;0.00;;;;;;;;;;5077468;28;20274;-68
2021/06/25 08:55:48;;;;;;;0.00;0.00;;;;;;;;;;5083476;28;20277;-68
2021/06/25 08:58:17;;;;;;;0.00;0.00;;;;;;;;;;5082767;28;20242;-69
2021/06/25 09:00:44;;;;;;;0.00;0.00;;;;;;;;;;5079200;28;20406;-70
2021/06/25 09:03:12;;;;;;;0.10;0.10;;;;;;;;;;5073496;28;20220;-69
2021/06/25 09:05:38;;;;;;;0.00;0.00;;;;;;;;;;5082930;28;20214;-69
2021/06/25 09:08:05;;;;;;;0.10;0.10;;;;;;;;;;5079535;28;20241;-69
2021/06/25 09:10:33;;;;;;;0.10;0.10;;;;;;;;;;5071730;28;20373;-69
2021/06/25 09:13:06;;;;;;;0.03;0.03;;;;;;;;;;5076109;28;20210;-69
2021/06/25 09:15:35;;;;;;;0.00;0.00;;;;;;;;;;5079186;28;20207;-70
2021/06/25 09:18:03;;;;;;;0.00;0.00;;;;;;;;;;5068513;28;20230;-70
2021/06/25 09:20:34;;;;;;;0.00;0.00;;;;;;;;;;5082821;28;20256;-70
2021/06/25 09:23:00;;;;;;;0.00;0.00;;;;;;;;;;5082824;28;20268;-70
2021/06/25 09:25:27;;;;;;;0.00;0.00;;;;;;;;;;5076981;28;20540;-69
2021/06/25 09:27:56;;;;;;;0.10;0.10;;;;;;;;;;5063366;28;20246;-71
2021/06/25 09:30:26;;;;;;;0.00;0.00;;;;;;;;;;5080258;28;20205;-69
2021/06/25 09:32:55;;;;;;;0.00;0.00;;;;;;;;;;5082563;28;20200;-70
2021/06/25 09:35:22;;;;;;;0.00;0.00;;;;;;;;;;5082464;28;20264;-70
2021/06/25 09:37:50;;;;;;;0.00;0.00;;;;;;;;;;5082401;28;20225;-70
2021/06/25 09:40:17;;;;;;;0.00;0.00;;;;;;;;;;5068192;28;20205;-69
2021/06/25 09:42:45;;;;;;;0.00;0.00;;;;;;;;;;5082265;28;20367;-70
2021/06/25 09:45:13;;;;;;;0.10;0.10;;;;;;;;;;5068257;28;20207;-69
2021/06/25 09:47:41;;;;;;;0.00;0.00;;;;;;;;;;5082224;28;20201;-72
2021/06/25 09:50:12;;;;;;;0.00;0.00;;;;;;;;;;5082247;28;20204;-68
2021/06/25 09:52:50;;;;;;;0.00;0.00;;;;;;;;;;5068878;28;20264;-68
2021/06/25 09:55:17;;;;;;;0.00;0.00;;;;;;;;;;5082119;28;20206;-68
2021/06/25 09:58:27;;;;;;;0.00;0.00;;;;;;;;;;5082345;28;20220;-69
2021/06/25 10:03:41;;;;;;;0.10;0.10;;;;;;;;;;5062375;28;20390;-68
2021/06/25 10:06:10;;;;;;;0.00;0.00;;;;;;;;;;5075563;28;20205;-68
2021/06/25 10:08:37;;;;;;;0.10;0.10;;;;;;;;;;5075093;28;20215;-68
2021/06/25 10:11:05;;;;;;;0.08;0.08;;;;;;;;;;5067527;28;20201;-68
2021/06/25 10:13:32;;;;;;;0.00;0.00;;;;;;;;;;5081987;28;20204;-68
2021/06/25 10:15:59;;;;;;;0.00;0.00;;;;;;;;;;5077857;28;20196;-69
2021/06/25 10:18:26;;;;;;;0.00;0.00;;;;;;;;;;5073922;28;20231;-69
2021/06/25 10:20:54;;;;;;;0.00;0.00;;;;;;;;;;5086031;28;20214;-70
2021/06/25 10:23:24;;;;;;;0.00;0.00;;;;;;;;;;5077308;28;20201;-70
2021/06/25 10:25:51;;;;;;;0.00;0.00;;;;;;;;;;5079752;28;20499;-70
2021/06/25 10:28:18;;;;;;;0.00;0.00;;;;;;;;;;5065836;28;20199;-68
2021/06/25 10:30:45;;;;;;;0.00;0.00;;;;;;;;;;5078981;28;20373;-70
2021/06/25 10:33:12;;;;;;;0.10;0.10;;;;;;;;;;5085778;28;20228;-70
2021/06/25 10:35:39;;;;;;;0.13;0.13;;;;;;;;;;5085730;28;20219;-67
2021/06/25 10:38:06;;;;;;;0.00;0.00;;;;;;;;;;5071771;28;20397;-68
2021/06/25 10:40:34;;;;;;;0.00;0.00;;;;;;;;;;5085510;28;20207;-68
2021/06/25 10:43:01;;;;;;;0.00;0.00;;;;;;;;;;5085307;28;20218;-68
2021/06/25 10:45:41;;;;;;;0.00;0.00;;;;;;;;;;5085504;28;20206;-68
2021/06/25 10:48:07;;;;;;;0.00;0.00;;;;;;;;;;5075203;28;20487;-68
2021/06/25 10:50:34;;;;;;;0.00;0.00;;;;;;;;;;5085617;28;20227;-68
2021/06/25 10:53:20;;;;;;;0.00;0.00;;;;;;;;;;5085478;28;20200;-68
2021/06/25 10:56:05;;;;;;;0.00;0.00;;;;;;;;;;5085263;28;20214;-68
2021/06/25 10:58:32;;;;;;;0.70;0.70;;;;;;;;;;5085321;28;20289;-70
2021/06/25 11:01:00;;;;;;;0.00;0.00;;;;;;;;;;5085378;28;20231;-68
2021/06/25 11:03:31;;;;;;;0.10;0.10;;;;;;;;;;5085839;28;20246;-68
2021/06/25 11:05:58;;;;;;;0.00;0.00;;;;;;;;;;5085431;28;20284;-70
2021/06/25 11:08:25;;;;;;;0.00;0.00;;;;;;;;;;5085348;28;20247;-68
2021/06/25 11:10:52;;;;;;;0.00;0.00;;;;;;;;;;5085610;28;20276;-68
2021/06/25 11:13:22;;;;;;;0.00;0.00;;;;;;;;;;5085245;28;20294;-68
2021/06/25 11:15:50;;;;;;;0.00;0.00;;;;;;;;;;5085268;28;20209;-70
2021/06/25 11:18:17;;;;;;;0.00;0.00;;;;;;;;;;5085658;28;20224;-70
2021/06/25 11:20:51;;;;;;;0.00;0.00;;;;;;;;;;5085390;28;20208;-68
2021/06/25 11:23:21;;;;;;;0.00;0.00;;;;;;;;;;5085542;28;20246;-68
2021/06/25 11:25:49;;;;;;;0.00;0.00;;;;;;;;;;5084914;28;20282;-68
2021/06/25 11:28:19;;;;;;;0.00;0.00;;;;;;;;;;5084833;28;20507;-68
2021/06/25 11:31:06;;;;;;;0.10;0.10;;;;;;;;;;5085268;28;20382;-68
2021/06/25 11:33:37;;;;;;;0.00;0.00;;;;;;;;;;5069875;28;20205;-68
2021/06/25 11:36:19;;;;;;;0.00;0.00;;;;;;;;;;5084853;28;20207;-68
2021/06/25 11:38:53;;;;;;;0.00;0.00;;;;;;;;;;5073630;28;20248;-68
2021/06/25 11:41:20;;;;;;;0.00;0.00;;;;;;;;;;5080947;28;20264;-68
2021/06/25 11:43:48;;;;;;;0.00;0.00;;;;;;;;;;5076151;28;20208;-68
2021/06/25 11:46:16;;;;;;;0.00;0.00;;;;;;;;;;5079487;28;20202;-68
2021/06/25 11:48:44;;;;;;;0.00;0.00;;;;;;;;;;5084894;28;20203;-68
2021/06/25 11:51:11;;;;;;;0.00;0.00;;;;;;;;;;5085090;28;20270;-68
2021/06/25 11:53:41;;;;;;;0.00;0.00;;;;;;;;;;5084643;28;20462;-68
2021/06/25 11:56:07;;;;;;;0.00;0.00;;;;;;;;;;5084460;28;20211;-68
2021/06/25 11:58:34;;;;;;;0.10;0.10;;;;;;;;;;5084598;28;20222;-68
2021/06/25 12:01:01;;;;;;;0.00;0.00;;;;;;;;;;5077704;28;20275;-68
2021/06/25 12:03:28;;;;;;;0.00;0.00;;;;;;;;;;5082335;28;20228;-68
2021/06/25 12:06:03;;;;;;;0.00;0.00;;;;;;;;;;5084793;28;20207;-68
2021/06/25 12:08:30;;;;;;;0.00;0.00;;;;;;;;;;5076738;28;20215;-68
2021/06/25 12:11:01;;;;;;;0.00;0.00;;;;;;;;;;5078205;28;20205;-69
2021/06/25 12:13:29;;;;;;;0.00;0.00;;;;;;;;;;5070867;28;20215;-67
2021/06/25 12:15:55;;;;;;;0.00;0.00;;;;;;;;;;5084299;28;20210;-69
2021/06/25 12:18:23;;;;;;;0.00;0.00;;;;;;;;;;5084341;28;20276;-68
2021/06/25 12:20:49;;;;;;;0.00;0.00;;;;;;;;;;5083984;28;20245;-70
2021/06/25 12:23:19;;;;;;;0.00;0.00;;;;;;;;;;5080431;28;20250;-70
2021/06/25 12:25:49;;;;;;;0.10;0.10;;;;;;;;;;5076096;28;20226;-69
2021/06/25 12:28:17;;;;;;;0.00;0.00;;;;;;;;;;5084205;28;20226;-69
2021/06/25 12:30:44;;;;;;;0.00;0.00;;;;;;;;;;5078037;28;20226;-70
2021/06/25 12:33:11;;;;;;;0.00;0.00;;;;;;;;;;5083963;28;20201;-70
2021/06/25 12:35:38;;;;;;;0.00;0.00;;;;;;;;;;5083469;28;20237;-69
2021/06/25 12:38:06;;;;;;;0.00;0.00;;;;;;;;;;5070399;28;20208;-69
2021/06/25 12:40:44;;;;;;;0.00;0.00;;;;;;;;;;5077279;28;20208;-69
2021/06/25 12:43:12;;;;;;;0.00;0.00;;;;;;;;;;5076870;28;20199;-69
2021/06/25 12:45:42;;;;;;;0.00;0.00;;;;;;;;;;5077521;28;20215;-69
2021/06/25 12:48:19;;;;;;;0.20;0.20;;;;;;;;;;5080538;28;20247;-69
2021/06/25 12:50:45;;;;;;;0.00;0.00;;;;;;;;;;5072512;28;20266;-68
2021/06/25 12:53:16;;;;;;;0.08;0.08;;;;;;;;;;5079262;28;20206;-69
2021/06/25 12:55:47;;;;;;;0.00;0.00;;;;;;;;;;5069506;28;20318;-68
2021/06/25 12:58:15;;;;;;;0.00;0.00;;;;;;;;;;5071242;28;20203;-70
2021/06/25 13:00:42;;;;;;;0.00;0.00;;;;;;;;;;5082674;28;20202;-69
2021/06/25 13:03:09;;;;;;;2.75;1.63;;;;;;;;;;5081153;28;20199;-74
2021/06/25 13:05:36;;;;;;;0.05;0.05;;;;;;;;;;5077163;28;20205;-72
2021/06/25 13:08:13;;;;;;;0.10;0.10;;;;;;;;;;5077643;28;20452;-72
2021/06/25 13:10:40;;;;;;;0.10;0.10;;;;;;;;;;5076950;28;20249;-73
2021/06/25 13:13:16;;;;;;;0.00;0.00;;;;;;;;;;5073985;28;20369;-68
2021/06/25 13:15:45;;;;;;;0.00;0.00;;;;;;;;;;5076362;28;20226;-73
2021/06/25 13:18:12;;;;;;;0.00;0.00;;;;;;;;;;5069932;28;20377;-73
2021/06/25 13:20:58;;;;;;;0.00;0.00;;;;;;;;;;5073901;28;20211;-73
2021/06/25 13:23:24;;;;;;;0.10;0.10;;;;;;;;;;5073894;28;20269;-74
2021/06/25 13:25:53;;;;;;;4.35;4.13;;;;;;;;;;5077065;28;20316;-75
2021/06/25 13:28:21;;;;;;;2.45;0.98;;;;;;;;;;5078840;28;20379;-68
2021/06/25 13:31:02;;;;;;;0.00;0.00;;;;;;;;;;5076305;28;20278;-70
2021/06/25 13:33:38;;;;;;;0.00;0.00;;;;;;;;;;5070215;28;20200;-72
2021/06/25 13:36:10;;;;;;;0.00;0.00;;;;;;;;;;5069823;28;20205;-69
2021/06/25 13:38:36;;;;;;;0.00;0.00;;;;;;;;;;5071283;28;20246;-70
2021/06/25 13:41:09;;;;;;;0.00;0.00;;;;;;;;;;5079735;28;20208;-70
2021/06/25 13:43:37;;;;;;;0.00;0.00;;;;;;;;;;5078898;28;20245;-69
2021/06/25 13:46:06;;;;;;;0.00;0.00;;;;;;;;;;5080302;28;20208;-69
2021/06/25 13:48:32;;;;;;;0.00;0.00;;;;;;;;;;5082595;28;20203;-69
2021/06/25 13:51:00;;;;;;;0.00;0.00;;;;;;;;;;5080189;28;20241;-69
2021/06/25 13:53:32;;;;;;;0.00;0.00;;;;;;;;;;5069975;28;20270;-69
2021/06/25 13:55:59;;;;;;;0.10;0.10;;;;;;;;;;5080048;28;20211;-69
2021/06/25 13:58:25;;;;;;;0.00;0.00;;;;;;;;;;5082807;28;20207;-70
2021/06/25 14:00:56;;;;;;;0.10;0.10;;;;;;;;;;5078292;28;20223;-70
2021/06/25 14:03:24;;;;;;;0.00;0.00;;;;;;;;;;5069164;28;20216;-70
2021/06/25 14:05:57;;;;;;;0.10;0.10;;;;;;;;;;5070658;28;20214;-70
2021/06/25 14:08:24;;;;;;;0.00;0.00;;;;;;;;;;5078593;28;20401;-70
2021/06/25 14:10:55;;;;;;;0.05;0.05;;;;;;;;;;5073326;28;20216;-71
2021/06/25 14:13:35;;;;;;;0.00;0.00;;;;;;;;;;5074874;28;20275;-69
2021/06/25 14:16:12;;;;;;;0.00;0.00;;;;;;;;;;5082162;28;20207;-69
2021/06/25 14:18:39;;;;;;;0.00;0.00;;;;;;;;;;5073984;28;20379;-69
2021/06/25 14:21:05;;;;;;;0.00;0.00;;;;;;;;;;5072339;28;20242;-71
2021/06/25 14:23:32;;;;;;;0.00;0.00;;;;;;;;;;5068684;28;20210;-69
2021/06/25 14:25:59;;;;;;;0.00;0.00;;;;;;;;;;5078487;28;20284;-68
2021/06/25 14:28:26;;;;;;;0.00;0.00;;;;;;;;;;5078374;28;20274;-68
2021/06/25 14:30:54;;;;;;;0.00;0.00;;;;;;;;;;5078210;28;20204;-68
2021/06/25 14:33:22;;;;;;;0.00;0.00;;;;;;;;;;5078034;28;20284;-68
2021/06/25 14:35:51;;;;;;;0.03;0.03;;;;;;;;;;5072198;28;20207;-68
2021/06/25 14:38:18;;;;;;;0.00;0.00;;;;;;;;;;5081009;28;20200;-68
2021/06/25 14:40:44;;;;;;;0.00;0.00;;;;;;;;;;5082026;28;20284;-67
2021/06/25 14:43:11;;;;;;;0.00;0.00;;;;;;;;;;5064460;28;20472;-68
2021/06/25 14:45:38;;;;;;;0.00;0.00;;;;;;;;;;5076176;28;20217;-69
2021/06/25 14:48:05;;;;;;;0.00;0.00;;;;;;;;;;5078125;28;20267;-68
2021/06/25 14:50:33;;;;;;;0.00;0.00;;;;;;;;;;5077020;28;20412;-68
2021/06/25 14:53:00;;;;;;;0.00;0.00;;;;;;;;;;5062034;28;20223;-69
2021/06/25 14:55:27;;;;;;;0.00;0.00;;;;;;;;;;5078632;28;20238;-69
2021/06/25 14:57:53;;;;;;;0.10;0.10;;;;;;;;;;5080571;28;20199;-69